Terminal Aerodrome Forecast
Issued by NWS

Home | Current Version | Previous Version | Text Only | Print | Product List | Glossary On
Versions: 1 2 3 4 5 6 7 8 9 10 11 12 13 14 15 16 17 18 19 20 21 22 23 24
000
FTUS43 KMPX 261700
TAFRWF
TAF
KRWF 261723Z 2618/2718 34012G22KT 6SM BLSN SCT015 OVC030
     FM261900 32012G22KT 6SM BLSN BKN012
     FM270100 32010KT P6SM SCT025
     FM270500 32005KT P6SM SKC
     FM271600 VRB03KT P6SM BKN200=

USA.gov is the U.S. government's official web portal to all federal, state and local government web resources and services.